Time;durP1;ratioP1;P1;durP2;ratioP2;P2;SDS_P1;SDS_P2;PMS_P1;PMS_P2;Temp;Humidity;BMP_temperature;BMP_pressure;BME280_temperature;BME280_humidity;BME280_pressure;Samples;Min_cycle;Max_cycle;Signal;HPM_P1;HPM_P2
2022/10/14 00:01:22;;;;;;;3.63;2.43;;;;;;;13.62;67.11;97497.66;5047471;28;20778;-76
2022/10/14 00:03:51;;;;;;;5.37;2.67;;;;;;;13.72;67.22;97516.28;5047711;28;20207;-77
2022/10/14 00:06:23;;;;;;;4.90;3.07;;;;;;;13.83;67.04;97516.56;5046826;28;20227;-74
2022/10/14 00:08:50;;;;;;;4.30;2.77;;;;;;;13.86;65.80;97498.19;5045860;28;20205;-75
2022/10/14 00:11:20;;;;;;;8.50;2.77;;;;;;;13.89;65.80;97500.63;5045201;28;20765;-76
2022/10/14 00:13:48;;;;;;;2.97;2.50;;;;;;;13.67;66.89;97494.84;5047692;28;20756;-76
2022/10/14 00:16:24;;;;;;;3.83;2.40;;;;;;;13.73;66.35;97484.97;5046932;28;20196;-74
2022/10/14 00:18:51;;;;;;;3.57;2.53;;;;;;;13.67;65.96;97489.63;5046943;28;20300;-75
2022/10/14 00:21:19;;;;;;;5.53;3.10;;;;;;;13.63;66.36;97488.94;5046120;28;20673;-75
2022/10/14 00:23:47;;;;;;;5.33;3.23;;;;;;;13.35;66.30;97474.81;5046696;28;20196;-76
2022/10/14 00:26:19;;;;;;;3.17;2.60;;;;;;;13.36;66.50;97485.13;5047669;28;20707;-76
2022/10/14 00:28:46;;;;;;;3.73;2.97;;;;;;;13.26;67.01;97472.66;5028823;28;20203;-76
2022/10/14 00:31:14;;;;;;;4.47;3.00;;;;;;;13.10;67.40;97477.78;5046963;28;20780;-76
2022/10/14 00:33:44;;;;;;;4.13;2.90;;;;;;;12.89;67.90;97469.22;5045774;28;20194;-76
2022/10/14 00:36:13;;;;;;;4.43;2.97;;;;;;;12.86;69.12;97479.75;5046818;28;20187;-76
2022/10/14 00:38:41;;;;;;;6.23;2.90;;;;;;;12.94;68.67;97477.63;5047217;28;20254;-76
2022/10/14 00:41:19;;;;;;;4.80;3.03;;;;;;;13.15;67.62;97467.16;5046252;28;20623;-76
2022/10/14 00:44:01;;;;;;;6.97;2.73;;;;;;;13.20;67.80;97472.94;5045972;28;20226;-75
2022/10/14 00:46:37;;;;;;;4.67;2.77;;;;;;;13.19;67.35;97463.47;5045343;28;20842;-76
2022/10/14 00:49:19;;;;;;;4.53;2.53;;;;;;;13.16;67.18;97466.22;5045544;28;20200;-76
2022/10/14 00:51:59;;;;;;;5.30;3.03;;;;;;;13.10;67.77;97450.91;5046986;28;20196;-78
2022/10/14 00:54:55;;;;;;;5.50;2.70;;;;;;;13.10;67.60;97456.13;5045988;28;20220;-77
2022/10/14 00:57:24;;;;;;;4.13;2.43;;;;;;;13.07;67.62;97451.91;5061419;28;20235;-77
2022/10/14 00:59:55;;;;;;;4.40;2.50;;;;;;;13.00;67.79;97443.53;5069072;28;20194;-75
2022/10/14 01:02:22;;;;;;;4.87;2.80;;;;;;;12.84;67.90;97453.00;5078610;28;20224;-76
2022/10/14 01:04:49;;;;;;;4.17;3.00;;;;;;;12.59;69.24;97449.88;5065710;28;20191;-75
2022/10/14 01:07:44;;;;;;;5.47;2.87;;;;;;;12.70;68.54;97445.00;5074982;28;20201;-75
2022/10/14 01:10:14;;;;;;;3.77;2.93;;;;;;;12.67;68.46;97437.38;5087618;28;20193;-78
2022/10/14 01:13:02;;;;;;;5.20;2.90;;;;;;;12.32;69.99;97438.19;5085432;28;20210;-75
2022/10/14 01:15:36;;;;;;;4.90;3.00;;;;;;;12.40;69.46;97438.69;5086576;28;20270;-76
2022/10/14 01:18:16;;;;;;;5.93;3.00;;;;;;;12.34;69.52;97443.31;5087388;28;20199;-78
2022/10/14 01:20:49;;;;;;;3.33;2.70;;;;;;;12.24;70.12;97437.69;5087024;28;20187;-76
2022/10/14 01:23:40;;;;;;;4.07;2.77;;;;;;;12.07;71.11;97429.84;5091155;28;20180;-76
2022/10/14 01:26:25;;;;;;;5.10;3.23;;;;;;;12.01;71.55;97430.94;5089549;28;20221;-76
2022/10/14 01:29:11;;;;;;;6.40;3.60;;;;;;;12.05;71.74;97434.25;5089028;28;20239;-76
2022/10/14 01:31:44;;;;;;;5.20;2.37;;;;;;;11.78;73.29;97431.13;5090881;28;20224;-77
2022/10/14 01:34:15;;;;;;;3.57;2.53;;;;;;;11.93;73.21;97427.03;5090191;28;20192;-76
2022/10/14 01:37:00;;;;;;;3.87;2.37;;;;;;;12.18;72.56;97430.16;5089436;28;20178;-75
2022/10/14 01:39:31;;;;;;;4.00;2.70;;;;;;;12.40;71.73;97420.50;5091262;28;20193;-75
2022/10/14 01:42:13;;;;;;;4.40;2.63;;;;;;;12.51;70.60;97427.78;5089155;28;20676;-75
2022/10/14 01:44:44;;;;;;;5.37;2.67;;;;;;;12.53;69.88;97424.19;5057378;28;20189;-78
2022/10/14 01:47:16;;;;;;;4.03;2.40;;;;;;;12.72;69.68;97425.00;5050021;28;20214;-78
2022/10/14 01:49:52;;;;;;;4.70;2.23;;;;;;;12.73;69.80;97418.03;5051753;28;20264;-78
2022/10/14 01:52:26;;;;;;;3.17;2.70;;;;;;;12.65;69.40;97420.19;5050051;28;20213;-78
2022/10/14 01:54:57;;;;;;;3.07;2.40;;;;;;;12.41;70.54;97408.31;5048779;28;20594;-78
2022/10/14 01:57:28;;;;;;;5.27;3.60;;;;;;;12.43;70.57;97416.88;5050016;28;20201;-79
2022/10/14 01:59:57;;;;;;;5.40;3.00;;;;;;;12.15;71.15;97418.19;5032381;28;20197;-78
2022/10/14 02:02:25;;;;;;;5.80;2.90;;;;;;;12.02;71.10;97426.59;5049074;28;20203;-78
2022/10/14 02:04:52;;;;;;;12.30;3.33;;;;;;;11.81;72.04;97424.97;5048743;28;20626;-80
2022/10/14 02:07:33;;;;;;;6.93;2.80;;;;;;;11.69;72.21;97415.97;5050187;28;20249;-75
2022/10/14 02:10:35;;;;;;;3.67;2.47;;;;;;;11.95;71.59;97420.00;5048828;28;20692;-78
2022/10/14 02:13:34;;;;;;;4.30;2.57;;;;;;;11.98;71.84;97415.50;5045238;28;20200;-79
2022/10/14 02:16:23;;;;;;;3.53;2.70;;;;;;;12.04;72.08;97411.78;5017885;28;20847;-77
2022/10/14 02:19:01;;;;;;;3.30;2.37;;;;;;;12.04;71.36;97409.19;5049042;28;20199;-78
2022/10/14 02:21:28;;;;;;;5.73;3.03;;;;;;;12.02;71.07;97409.28;5049670;28;20183;-79
2022/10/14 02:24:21;;;;;;;4.83;3.00;;;;;;;12.18;70.96;97404.19;5061358;28;20202;-79
2022/10/14 02:26:52;;;;;;;4.63;2.43;;;;;;;12.11;70.42;97402.81;5059189;28;20218;-78
2022/10/14 02:29:21;;;;;;;4.77;2.97;;;;;;;12.16;70.54;97408.63;5067955;28;20211;-77
2022/10/14 02:31:53;;;;;;;8.37;2.40;;;;;;;12.17;71.03;97412.91;5069133;28;20235;-75
2022/10/14 02:34:21;;;;;;;3.47;2.30;;;;;;;12.28;70.81;97408.91;5066863;28;20187;-77
2022/10/14 02:36:51;;;;;;;4.13;2.37;;;;;;;12.30;70.31;97411.44;5068688;28;20184;-75
2022/10/14 02:39:24;;;;;;;4.80;2.60;;;;;;;12.32;69.71;97408.78;5067638;28;20649;-76
2022/10/14 02:41:52;;;;;;;3.70;2.50;;;;;;;11.87;70.10;97398.75;5069540;28;20210;-77
2022/10/14 02:44:19;;;;;;;3.10;2.33;;;;;;;11.56;71.20;97413.97;5070689;28;20180;-77
2022/10/14 02:46:47;;;;;;;6.13;2.20;;;;;;;11.25;72.04;97410.06;5067788;28;20221;-78
2022/10/14 02:49:15;;;;;;;5.13;2.30;;;;;;;10.99;73.72;97405.16;5070076;28;20276;-80
2022/10/14 02:51:43;;;;;;;4.40;2.20;;;;;;;10.87;73.76;97400.47;5069045;28;20618;-78
2022/10/14 02:54:10;;;;;;;4.10;2.23;;;;;;;11.02;72.83;97405.03;5068606;28;20192;-79
2022/10/14 02:56:37;;;;;;;4.03;2.10;;;;;;;11.09;71.86;97411.63;5068649;28;20190;-76
2022/10/14 02:59:04;;;;;;;4.83;2.27;;;;;;;11.23;72.04;97401.50;5068151;28;20205;-79
2022/10/14 03:01:31;;;;;;;2.90;2.23;;;;;;;11.11;71.14;97399.44;5067741;28;20189;-76
2022/10/14 03:04:04;;;;;;;7.10;2.27;;;;;;;10.84;72.39;97385.03;5067384;28;20194;-76
2022/10/14 03:06:31;;;;;;;4.33;2.33;;;;;;;10.75;73.29;97389.78;5068096;28;20632;-79
2022/10/14 03:08:59;;;;;;;7.27;2.63;;;;;;;10.78;73.67;97394.84;5067223;28;20183;-78
2022/10/14 03:11:26;;;;;;;6.93;2.50;;;;;;;10.81;73.58;97392.97;5069309;28;20213;-78
2022/10/14 03:14:01;;;;;;;5.17;2.20;;;;;;;10.76;74.27;97386.28;5067324;28;20238;-78
2022/10/14 03:16:28;;;;;;;4.53;2.40;;;;;;;10.74;74.66;97386.31;5067489;28;20272;-77
2022/10/14 03:18:56;;;;;;;4.20;2.27;;;;;;;10.75;74.96;97387.19;5067195;28;20592;-76
2022/10/14 03:21:38;;;;;;;6.10;2.83;;;;;;;10.84;75.27;97392.81;5066992;28;20231;-77
2022/10/14 03:24:10;;;;;;;5.30;2.63;;;;;;;11.05;74.31;97385.91;5086268;28;20192;-79
2022/10/14 03:26:39;;;;;;;4.57;2.90;;;;;;;11.08;74.30;97376.25;5083906;28;20217;-76
2022/10/14 03:29:06;;;;;;;5.10;3.40;;;;;;;11.13;74.55;97378.63;5067862;28;20326;-78
2022/10/14 03:32:02;;;;;;;4.60;3.10;;;;;;;11.13;75.04;97376.03;5072950;28;20224;-75
2022/10/14 03:34:44;;;;;;;5.90;3.20;;;;;;;11.44;73.79;97377.25;5074618;28;20193;-75
2022/10/14 03:37:15;;;;;;;9.27;2.70;;;;;;;11.51;73.28;97380.44;5069508;28;20190;-74
2022/10/14 03:39:48;;;;;;;4.40;2.20;;;;;;;11.60;72.50;97376.59;5068116;28;20235;-75
2022/10/14 03:42:16;;;;;;;4.00;2.47;;;;;;;11.57;72.64;97348.19;5070090;28;20212;-75
2022/10/14 03:44:46;;;;;;;4.57;2.70;;;;;;;11.83;72.11;97379.88;5070195;28;20197;-77
2022/10/14 03:47:31;;;;;;;23.50;7.03;;;;;;;11.85;71.10;97377.22;5081793;28;20210;-75
2022/10/14 03:50:01;;;;;;;9.80;3.53;;;;;;;11.88;71.66;97383.09;5069137;28;20680;-75
2022/10/14 03:52:40;;;;;;;9.20;4.27;;;;;;;11.96;71.91;97380.16;5067343;28;20189;-74
2022/10/14 03:55:22;;;;;;;5.10;3.80;;;;;;;11.92;71.65;97373.41;5074591;28;20189;-77
2022/10/14 03:57:50;;;;;;;6.90;3.00;;;;;;;11.96;71.14;97354.19;5087923;28;20188;-76
2022/10/14 04:00:18;;;;;;;4.97;3.00;;;;;;;12.07;71.02;97372.72;5087723;28;20193;-76
2022/10/14 04:02:55;;;;;;;4.93;3.13;;;;;;;12.02;70.96;97380.72;5070914;28;20554;-76
2022/10/14 04:05:33;;;;;;;9.53;4.67;;;;;;;12.06;71.16;97365.84;5086463;28;20197;-75
2022/10/14 04:08:08;;;;;;;4.40;2.67;;;;;;;11.96;70.28;97359.38;5054214;28;20180;-76
2022/10/14 04:10:36;;;;;;;5.40;3.30;;;;;;;11.87;70.41;97380.59;5067404;28;20188;-76
2022/10/14 04:13:03;;;;;;;7.37;3.63;;;;;;;11.55;72.17;97378.53;5068359;28;20193;-77
2022/10/14 04:15:36;;;;;;;6.20;3.37;;;;;;;11.18;72.71;97338.69;5067992;28;20216;-79
2022/10/14 04:18:29;;;;;;;6.07;3.07;;;;;;;11.33;73.33;97368.28;5053145;28;20251;-77
2022/10/14 04:21:00;;;;;;;6.67;3.60;;;;;;;11.12;74.14;97359.69;5067361;28;20173;-74
2022/10/14 04:23:28;;;;;;;10.93;3.30;;;;;;;11.19;74.16;97363.66;5086023;28;20189;-76
2022/10/14 04:26:05;;;;;;;11.53;3.07;;;;;;;11.24;74.01;97361.72;5083187;28;20652;-76
2022/10/14 04:28:32;;;;;;;4.87;3.00;;;;;;;11.26;74.21;97359.06;5066314;28;20190;-76
2022/10/14 04:31:07;;;;;;;6.07;3.40;;;;;;;11.09;74.84;97359.78;5065236;28;20272;-76
2022/10/14 04:33:47;;;;;;;5.57;3.70;;;;;;;10.83;75.52;97328.97;5066173;28;20194;-76
2022/10/14 04:36:20;;;;;;;8.87;4.70;;;;;;;11.00;75.71;97356.75;5065174;28;20240;-77
2022/10/14 04:39:27;;;;;;;3.93;3.10;;;;;;;11.19;75.21;97357.66;5065313;28;20197;-75
2022/10/14 04:41:55;;;;;;;8.43;3.90;;;;;;;11.32;74.38;97370.03;5037765;28;20201;-76
2022/10/14 04:44:23;;;;;;;12.87;4.83;;;;;;;11.52;73.73;97363.94;5049031;28;20275;-78
2022/10/14 04:46:53;;;;;;;14.20;4.50;;;;;;;11.50;73.80;97360.56;5065646;28;20212;-77
2022/10/14 04:49:25;;;;;;;7.40;3.67;;;;;;;11.34;74.23;97367.34;5065127;28;20189;-75
2022/10/14 04:52:03;;;;;;;9.20;4.10;;;;;;;11.04;74.90;97346.22;5065367;28;20307;-75
2022/10/14 04:54:44;;;;;;;5.10;3.47;;;;;;;11.03;75.80;97364.38;5078293;28;20648;-76
2022/10/14 04:57:11;;;;;;;10.17;2.77;;;;;;;10.99;75.56;97366.28;5084922;28;20180;-79
2022/10/14 04:59:41;;;;;;;6.67;4.27;;;;;;;10.92;76.34;97371.78;5076096;28;20178;-76
2022/10/14 05:02:17;;;;;;;7.30;3.03;;;;;;;11.07;76.15;97364.19;5044686;28;20596;-76
2022/10/14 05:04:51;;;;;;;11.77;4.07;;;;;;;11.00;76.28;97357.63;5028574;28;20261;-76
2022/10/14 05:07:18;;;;;;;11.23;3.77;;;;;;;11.02;75.69;97348.03;5044682;28;20221;-76
2022/10/14 05:09:50;;;;;;;10.00;3.67;;;;;;;11.16;76.16;97358.63;5045281;28;20306;-76
2022/10/14 05:12:36;;;;;;;9.93;4.10;;;;;;;11.28;75.01;97360.69;5045931;28;20201;-77
2022/10/14 05:15:04;;;;;;;7.23;3.37;;;;;;;11.31;75.38;97365.72;5044998;28;20182;-76
2022/10/14 05:17:38;;;;;;;4.93;2.93;;;;;;;11.00;76.45;97349.84;5045441;28;20225;-75
2022/10/14 05:20:06;;;;;;;8.53;3.63;;;;;;;11.04;76.47;97366.94;5044792;28;20281;-76
2022/10/14 05:22:37;;;;;;;7.30;3.60;;;;;;;11.07;76.10;97369.38;5028873;28;20666;-75
2022/10/14 05:25:07;;;;;;;5.37;3.10;;;;;;;11.01;76.58;97377.41;5030010;28;21322;-74
2022/10/14 05:27:35;;;;;;;8.20;3.03;;;;;;;11.07;77.29;97365.94;5044717;28;20218;-76
2022/10/14 05:30:04;;;;;;;6.13;3.20;;;;;;;11.29;76.09;97372.72;5029207;28;20199;-73
2022/10/14 05:32:36;;;;;;;4.40;2.70;;;;;;;11.30;75.43;97343.31;5028701;28;20705;-74
2022/10/14 05:35:08;;;;;;;6.30;3.50;;;;;;;11.46;75.39;97380.63;5013498;28;20207;-76
2022/10/14 05:37:42;;;;;;;7.00;3.13;;;;;;;11.39;75.40;97358.50;5030580;28;20267;-75
2022/10/14 05:40:10;;;;;;;5.33;2.70;;;;;;;11.51;74.22;97361.44;5031692;28;20203;-76
2022/10/14 05:42:43;;;;;;;5.93;3.37;;;;;;;11.58;75.20;97362.84;5048047;28;20186;-74
2022/10/14 05:45:10;;;;;;;4.77;3.50;;;;;;;11.51;74.50;97356.25;5047265;28;20190;-77
2022/10/14 05:47:52;;;;;;;4.97;2.80;;;;;;;11.53;74.33;97351.81;5049257;28;20646;-75
2022/10/14 05:50:54;;;;;;;5.27;2.70;;;;;;;11.67;73.69;97378.03;5031444;28;20656;-80
2022/10/14 05:54:01;;;;;;;6.27;3.20;;;;;;;11.71;73.25;97364.00;5049121;28;20174;-77
2022/10/14 05:56:34;;;;;;;4.67;3.37;;;;;;;11.80;72.99;97361.00;5032572;28;20256;-76
2022/10/14 05:59:03;;;;;;;6.10;2.63;;;;;;;11.65;72.83;97338.31;5049210;28;20190;-75
2022/10/14 06:01:33;;;;;;;4.77;2.70;;;;;;;12.07;72.26;97381.38;5035537;28;20190;-75
2022/10/14 06:04:04;;;;;;;4.10;2.73;;;;;;;12.19;72.37;97385.13;5033304;28;20194;-75
2022/10/14 06:06:31;;;;;;;4.53;3.10;;;;;;;12.01;72.25;97344.47;5017421;28;20225;-74
2022/10/14 06:08:59;;;;;;;6.57;3.07;;;;;;;12.49;71.98;97388.06;5056641;28;20190;-73
2022/10/14 06:11:34;;;;;;;6.30;3.00;;;;;;;12.50;71.59;97359.41;5054174;28;20280;-77
2022/10/14 06:14:01;;;;;;;7.47;3.80;;;;;;;12.55;71.16;97372.16;5038105;28;20195;-75
2022/10/14 06:16:29;;;;;;;6.47;2.80;;;;;;;12.23;71.35;97356.38;5053885;28;20224;-76
2022/10/14 06:19:04;;;;;;;4.63;3.23;;;;;;;12.23;72.06;97384.91;5057235;28;20192;-73
2022/10/14 06:21:32;;;;;;;6.60;3.70;;;;;;;11.99;73.18;97354.88;5060663;28;20223;-74
2022/10/14 06:24:01;;;;;;;6.23;2.70;;;;;;;11.99;73.86;97373.06;5038223;28;20705;-76
2022/10/14 06:26:29;;;;;;;6.43;2.83;;;;;;;12.08;73.69;97388.22;5056338;28;20735;-77
2022/10/14 06:28:59;;;;;;;4.47;2.43;;;;;;;12.14;74.26;97371.50;5051170;28;20649;-76
2022/10/14 06:31:27;;;;;;;4.67;2.27;;;;;;;12.30;73.91;97389.81;5051214;28;20222;-78
2022/10/14 06:33:59;;;;;;;4.57;2.30;;;;;;;12.51;73.31;97394.84;5050320;28;20204;-74
2022/10/14 06:36:26;;;;;;;6.87;3.70;;;;;;;12.56;71.89;97371.25;5054223;28;20223;-76
2022/10/14 06:38:54;;;;;;;3.90;2.20;;;;;;;12.90;70.54;97386.88;5062891;28;20217;-79
2022/10/14 06:41:21;;;;;;;4.43;2.53;;;;;;;12.95;70.15;97372.72;5055135;28;20191;-78
2022/10/14 06:43:50;;;;;;;8.40;3.67;;;;;;;13.06;69.11;97395.63;5051423;28;20572;-78
2022/10/14 06:46:17;;;;;;;6.63;2.67;;;;;;;13.04;68.78;97382.69;5049114;28;20207;-78
2022/10/14 06:48:44;;;;;;;4.30;2.90;;;;;;;13.40;67.24;97389.56;5052041;28;20197;-79
2022/10/14 06:51:16;;;;;;;5.20;2.77;;;;;;;13.50;65.16;97370.78;5061203;28;20187;-79
2022/10/14 06:53:45;;;;;;;3.93;2.50;;;;;;;13.78;64.12;97388.41;5071924;28;20195;-82
2022/10/14 06:56:26;;;;;;;6.77;3.17;;;;;;;13.94;63.01;97384.06;5069818;28;20191;-80
2022/10/14 06:59:47;;;;;;;6.87;2.80;;;;;;;14.16;61.04;97394.16;5078625;28;20191;-80
2022/10/14 07:03:10;;;;;;;11.60;4.80;;;;;;;14.17;61.08;97391.50;5050912;28;20202;-79
2022/10/14 07:06:32;;;;;;;10.40;3.53;;;;;;;14.42;60.57;97401.44;5049983;28;20239;-79
2022/10/14 07:09:54;;;;;;;9.03;4.37;;;;;;;14.46;60.18;97397.75;5053812;28;20194;-78
2022/10/14 07:13:16;;;;;;;3.57;2.20;;;;;;;14.53;58.54;97401.66;5052229;28;20207;-74
2022/10/14 07:16:37;;;;;;;4.20;2.40;;;;;;;14.76;59.09;97385.56;5049028;28;20209;-77
2022/10/14 07:19:57;;;;;;;4.03;1.77;;;;;;;15.00;57.52;97391.19;5048476;28;20193;-75
2022/10/14 07:23:18;;;;;;;3.93;2.30;;;;;;;15.18;57.81;97387.50;5053040;28;20224;-78
2022/10/14 07:26:40;;;;;;;3.73;2.23;;;;;;;15.22;57.09;97389.84;5055521;28;20298;-76
2022/10/14 07:30:02;;;;;;;4.27;2.80;;;;;;;15.48;56.13;97390.94;5055149;28;20324;-82
2022/10/14 07:33:23;;;;;;;13.10;6.43;;;;;;;15.78;53.16;97389.09;5073462;28;20470;-78
2022/10/14 07:36:45;;;;;;;6.70;4.20;;;;;;;15.77;53.71;97384.78;5067394;28;20636;-76
2022/10/14 07:40:06;;;;;;;8.60;2.67;;;;;;;15.74;54.92;97371.94;5073002;28;20189;-76
2022/10/14 07:43:26;;;;;;;8.60;4.37;;;;;;;15.53;56.32;97367.16;5089107;28;20258;-78
2022/10/14 07:46:47;;;;;;;10.57;4.30;;;;;;;15.54;57.32;97377.50;5090019;28;20252;-80
2022/10/14 07:50:08;;;;;;;4.23;3.00;;;;;;;15.74;56.90;97361.50;5089239;28;20199;-79
2022/10/14 07:53:30;;;;;;;5.90;2.60;;;;;;;15.85;56.91;97364.28;5087922;28;20188;-82
2022/10/14 07:56:51;;;;;;;6.43;2.50;;;;;;;15.61;57.29;97334.44;5086481;28;20295;-77
2022/10/14 08:00:13;;;;;;;6.17;2.40;;;;;;;15.86;57.12;97339.84;5070187;28;20680;-76
2022/10/14 08:03:34;;;;;;;8.07;2.50;;;;;;;16.12;56.21;97325.13;5088187;28;20197;-80
2022/10/14 08:06:56;;;;;;;9.07;3.50;;;;;;;16.65;55.78;97358.34;5085062;28;20279;-76
2022/10/14 08:10:20;;;;;;;6.03;2.13;;;;;;;16.32;55.45;97357.88;5086389;28;20189;-80
2022/10/14 08:13:42;;;;;;;3.17;2.10;;;;;;;16.13;56.17;97343.34;5086977;28;20201;-76
2022/10/14 08:17:03;;;;;;;5.97;2.90;;;;;;;16.32;56.05;97342.19;5074608;28;20195;-75
2022/10/14 08:20:27;;;;;;;4.93;2.67;;;;;;;16.52;55.78;97347.00;5046754;28;20202;-76
2022/10/14 08:23:48;;;;;;;6.57;3.00;;;;;;;16.90;54.87;97337.47;5043924;28;20254;-76
2022/10/14 08:27:16;;;;;;;2.97;2.40;;;;;;;17.06;55.16;97333.75;5045687;28;20240;-77
2022/10/14 08:30:37;;;;;;;3.90;1.60;;;;;;;16.74;54.62;97335.03;5045780;28;20876;-78
2022/10/14 08:33:59;;;;;;;3.37;1.43;;;;;;;16.55;55.78;97331.94;5044994;28;20202;-78
2022/10/14 08:37:19;;;;;;;2.93;1.60;;;;;;;16.66;55.93;97333.88;5046260;28;20235;-77
2022/10/14 08:40:41;;;;;;;3.73;2.93;;;;;;;16.66;56.21;97339.09;5043317;28;20192;-75
2022/10/14 08:44:08;;;;;;;1.97;1.50;;;;;;;17.02;55.33;97339.31;5043676;28;20210;-77
2022/10/14 08:47:31;;;;;;;4.10;1.70;;;;;;;16.98;53.17;97337.84;5044224;28;20227;-75
2022/10/14 08:50:38;;;;;;;10.80;5.60;;;;;;;17.06;52.38;97351.25;5044279;28;20188;-78
2022/10/14 08:54:04;;;;;;;3.03;1.70;;;;;;;17.09;53.59;97332.72;5045254;28;20202;-80
2022/10/14 08:57:25;;;;;;;2.77;1.87;;;;;;;17.37;53.79;97336.94;5029210;28;20217;-82
2022/10/14 09:00:46;;;;;;;3.90;1.60;;;;;;;17.35;53.38;97321.31;5045293;28;20228;-82
2022/10/14 09:04:08;;;;;;;3.37;2.20;;;;;;;17.78;53.80;97343.63;5046028;28;20186;-81
2022/10/14 09:07:31;;;;;;;5.57;2.10;;;;;;;17.83;52.91;97340.69;5044577;28;20223;-80
2022/10/14 09:10:54;;;;;;;3.83;1.40;;;;;;;17.75;53.24;97341.25;5045548;28;20196;-81
2022/10/14 09:14:16;;;;;;;10.73;3.10;;;;;;;17.95;52.64;97339.00;5046137;28;20293;-81
2022/10/14 09:17:43;;;;;;;3.50;2.10;;;;;;;18.01;50.78;97336.78;5045040;28;20206;-81
2022/10/14 09:21:05;;;;;;;3.23;1.73;;;;;;;17.83;51.52;97330.22;5044664;28;20191;-80
2022/10/14 09:24:32;;;;;;;3.80;2.13;;;;;;;17.67;52.33;97333.06;5046051;28;20248;-82
2022/10/14 09:27:52;;;;;;;1.90;1.30;;;;;;;17.96;50.65;97323.19;5043506;28;20238;-83
2022/10/14 09:31:15;;;;;;;2.80;1.70;;;;;;;18.36;49.78;97326.41;5043070;28;20228;-81
2022/10/14 09:34:38;;;;;;;3.70;1.10;;;;;;;18.20;48.99;97321.41;5046926;28;20196;-81
2022/10/14 09:38:08;;;;;;;6.27;2.83;;;;;;;18.31;49.06;97326.75;5047159;28;20199;-81
2022/10/14 09:41:30;;;;;;;1.80;1.40;;;;;;;18.21;49.17;97319.66;5046308;28;20191;-81
2022/10/14 09:44:20;;;;;;;2.13;1.93;;;;;;;18.42;47.84;97321.53;5049351;28;20765;-81
2022/10/14 09:47:43;;;;;;;5.00;2.73;;;;;;;18.51;47.93;97299.94;5048941;28;20240;-77
2022/10/14 09:50:53;;;;;;;1.73;1.30;;;;;;;18.73;46.90;97322.81;5047735;28;20220;-72
2022/10/14 09:54:23;;;;;;;1.90;1.50;;;;;;;18.44;48.21;97301.31;5068230;28;20208;-71
2022/10/14 09:57:44;;;;;;;14.00;4.70;;;;;;;18.31;48.91;97311.00;5070439;28;20212;-78
2022/10/14 10:01:04;;;;;;;4.80;1.80;;;;;;;18.33;48.49;97313.50;5069517;28;20192;-77
2022/10/14 10:04:26;;;;;;;4.57;2.87;;;;;;;18.39;48.07;97319.16;5068850;28;20738;-76
2022/10/14 10:07:52;;;;;;;6.37;2.10;;;;;;;18.81;47.97;97315.22;5068297;28;20218;-76
2022/10/14 10:11:17;;;;;;;5.37;2.80;;;;;;;18.91;47.84;97312.72;5066650;28;20721;-75
2022/10/14 10:14:46;;;;;;;3.60;2.20;;;;;;;18.90;47.18;97306.66;5074144;28;20257;-74
2022/10/14 10:18:09;;;;;;;3.63;1.60;;;;;;;19.03;45.49;97312.66;5089116;28;20271;-71
2022/10/14 10:21:41;;;;;;;3.17;1.47;;;;;;;18.59;47.73;97292.34;5088665;28;20184;-71
2022/10/14 10:25:02;;;;;;;7.57;2.17;;;;;;;18.76;47.77;97292.88;5088017;28;20276;-70
2022/10/14 10:28:23;;;;;;;3.77;1.70;;;;;;;19.01;46.03;97290.09;5088045;28;20603;-75
2022/10/14 10:31:16;;;;;;;5.40;1.77;;;;;;;18.93;44.35;97289.84;5088506;28;20231;-76
2022/10/14 10:34:00;;;;;;;1.80;1.63;;;;;;;18.56;43.89;97284.72;5089160;28;20199;-73
2022/10/14 10:37:13;;;;;;;8.37;3.33;;;;;;;18.89;43.90;97272.66;5086399;28;20220;-78
2022/10/14 10:40:19;;;;;;;2.93;1.77;;;;;;;19.09;43.43;97264.94;5088640;28;20500;-73
2022/10/14 10:43:48;;;;;;;4.30;1.90;;;;;;;19.36;43.69;97262.00;5089853;28;20187;-74
2022/10/14 10:46:56;;;;;;;4.67;1.83;;;;;;;19.29;43.84;97251.13;5086429;28;20196;-78
2022/10/14 10:49:57;;;;;;;7.43;2.27;;;;;;;19.38;44.04;97260.94;5087870;28;20294;-72
2022/10/14 10:53:22;;;;;;;4.83;1.80;;;;;;;19.44;43.96;97249.97;5088441;28;20195;-75
2022/10/14 10:56:38;;;;;;;11.43;2.83;;;;;;;19.37;44.70;97248.75;5086476;28;20287;-78
2022/10/14 11:00:23;;;;;;;3.27;2.20;;;;;;;19.56;44.81;97245.53;5084671;28;20227;-72
2022/10/14 11:03:18;;;;;;;8.27;2.20;;;;;;;19.56;44.33;97242.91;5084851;28;20202;-75
2022/10/14 11:12:01;;;;;;;4.23;1.93;;;;;;;19.60;45.13;97244.34;5087696;28;20221;-71
2022/10/14 11:13:44;;;;;;;7.40;1.80;;;;;;;19.26;45.21;97232.97;5069020;28;20267;-79
2022/10/14 11:16:31;;;;;;;4.77;1.80;;;;;;;19.48;44.85;97222.50;5069391;28;20246;-71
2022/10/14 11:19:37;;;;;;;6.27;2.33;;;;;;;19.60;44.59;97219.88;5047730;28;20704;-72
2022/10/14 11:22:27;;;;;;;4.30;2.00;;;;;;;19.74;44.04;97217.00;5048669;28;20690;-72
2022/10/14 11:26:06;;;;;;;3.83;2.40;;;;;;;19.79;43.90;97206.94;5047273;28;20258;-71
2022/10/14 11:29:05;;;;;;;2.80;1.93;;;;;;;19.86;44.11;97202.88;5045778;28;20313;-72
2022/10/14 11:32:09;;;;;;;4.20;2.07;;;;;;;19.67;44.18;97202.66;5046045;28;20734;-76
2022/10/14 11:35:05;;;;;;;3.80;2.00;;;;;;;19.30;44.96;97202.06;5066322;28;20199;-73
2022/10/14 11:38:40;;;;;;;6.47;3.60;;;;;;;19.24;44.88;97186.78;5070610;28;20208;-73
2022/10/14 11:41:39;;;;;;;4.73;2.23;;;;;;;19.42;45.32;97188.84;5066521;28;20318;-71
2022/10/14 11:45:10;;;;;;;2.20;1.60;;;;;;;19.60;44.45;97176.03;5082771;28;20219;-73
2022/10/14 11:48:46;;;;;;;4.40;2.27;;;;;;;19.30;45.18;97137.25;5080896;28;20351;-74
2022/10/14 11:52:15;;;;;;;7.23;2.07;;;;;;;19.56;45.20;97176.41;5087270;28;20200;-68
2022/10/14 11:55:46;;;;;;;8.20;3.07;;;;;;;19.64;44.90;97171.38;5082119;28;20706;-71
2022/10/14 11:59:06;;;;;;;5.50;2.90;;;;;;;19.64;45.19;97164.31;5086442;28;20184;-70
2022/10/14 12:02:25;;;;;;;4.90;2.57;;;;;;;19.85;44.98;97159.13;5043901;28;20288;-73
2022/10/14 12:05:54;;;;;;;7.13;2.60;;;;;;;19.61;44.08;97155.84;5081533;28;20586;-74
2022/10/14 12:09:35;;;;;;;6.57;2.83;;;;;;;19.70;44.13;97157.75;5044194;28;20762;-72
2022/10/14 12:12:56;;;;;;;6.23;3.50;;;;;;;19.43;45.08;97152.91;5071343;28;20311;-70
2022/10/14 12:16:17;;;;;;;5.50;2.87;;;;;;;18.89;46.24;97152.75;5051672;28;20679;-75
2022/10/14 12:19:44;;;;;;;10.33;3.10;;;;;;;19.03;44.83;97149.91;5071202;28;20226;-75
2022/10/14 12:23:05;;;;;;;6.43;2.50;;;;;;;19.13;44.77;97152.63;5086817;28;20196;-77
2022/10/14 12:26:29;;;;;;;8.77;4.20;;;;;;;19.03;45.40;97139.41;5071121;28;20231;-74
2022/10/14 12:29:54;;;;;;;9.07;2.60;;;;;;;18.97;46.08;97152.16;5063791;28;20202;-76
2022/10/14 12:33:18;;;;;;;2.97;2.40;;;;;;;18.90;45.72;97141.28;5065909;28;20228;-71
2022/10/14 12:36:50;;;;;;;4.37;2.50;;;;;;;18.54;46.66;97146.75;5065778;28;20205;-75
2022/10/14 12:40:12;;;;;;;8.10;3.67;;;;;;;18.42;47.88;97139.78;5064925;28;20207;-75
2022/10/14 12:43:00;;;;;;;8.20;3.20;;;;;;;18.31;47.61;97140.56;5064801;28;20212;-72
2022/10/14 12:45:55;;;;;;;4.67;2.80;;;;;;;18.38;47.78;97146.19;5063319;28;20795;-74
2022/10/14 12:48:26;;;;;;;7.60;3.23;;;;;;;18.34;48.07;97139.53;5075760;28;20321;-71
2022/10/14 12:51:21;;;;;;;10.57;4.07;;;;;;;18.39;48.25;97147.84;5084571;28;20243;-73
2022/10/14 12:54:06;;;;;;;7.17;3.50;;;;;;;18.40;48.30;97144.31;5086642;28;20202;-71
2022/10/14 12:56:53;;;;;;;8.30;3.07;;;;;;;18.37;48.39;97139.28;5070442;28;20229;-75
2022/10/14 12:59:30;;;;;;;4.83;3.43;;;;;;;18.37;48.68;97139.28;5065566;28;20191;-72
2022/10/14 13:02:03;;;;;;;5.63;3.73;;;;;;;18.26;48.90;97141.88;5066127;28;20205;-71
2022/10/14 13:04:31;;;;;;;7.27;3.80;;;;;;;18.28;48.55;97147.84;5064397;28;20222;-71
2022/10/14 13:07:16;;;;;;;3.93;3.33;;;;;;;18.19;49.13;97146.75;5064926;28;20253;-72
2022/10/14 13:10:25;;;;;;;9.40;3.30;;;;;;;18.03;49.67;97150.59;5066966;28;20182;-72
2022/10/14 13:12:52;;;;;;;12.07;3.20;;;;;;;18.07;50.12;97150.28;5065384;28;20218;-71
2022/10/14 13:15:47;;;;;;;9.27;3.50;;;;;;;18.14;50.24;97151.47;5066409;28;20645;-75
2022/10/14 13:18:35;;;;;;;9.30;3.90;;;;;;;18.17;50.27;97160.91;5069786;28;20718;-74
2022/10/14 13:21:04;;;;;;;5.37;3.10;;;;;;;17.87;52.28;97141.25;5069307;28;20194;-74
2022/10/14 13:24:34;;;;;;;9.67;3.63;;;;;;;17.87;52.62;97149.09;5052529;28;20193;-77
2022/10/14 13:27:11;;;;;;;14.87;4.50;;;;;;;17.93;53.35;97145.19;5054565;28;20288;-72